Time;durP1;ratioP1;P1;durP2;ratioP2;P2;SDS_P1;SDS_P2;PMS_P1;PMS_P2;Temp;Humidity;BMP_temperature;BMP_pressure;BME280_temperature;BME280_humidity;BME280_pressure;Samples;Min_cycle;Max_cycle;Signal;HPM_P1;HPM_P2
2021/10/23 00:01:35;;;;;;;0.40;0.20;;;6.00;99.90;;;;;;5094104;28;20703;-69
2021/10/23 00:04:00;;;;;;;1.30;0.60;;;5.90;99.90;;;;;;5093599;28;20916;-69
2021/10/23 00:06:26;;;;;;;0.40;0.20;;;6.00;99.90;;;;;;5094147;28;20374;-69
2021/10/23 00:08:52;;;;;;;0.40;0.20;;;6.00;99.90;;;;;;5094177;28;20389;-69
2021/10/23 00:11:17;;;;;;;0.40;0.30;;;6.10;99.90;;;;;;5093056;28;20374;-69
2021/10/23 00:13:43;;;;;;;0.52;0.43;;;6.00;99.90;;;;;;5094051;28;20390;-69
2021/10/23 00:16:09;;;;;;;0.40;0.30;;;6.00;99.90;;;;;;5093136;28;20366;-70
2021/10/23 00:18:35;;;;;;;0.40;0.20;;;6.10;99.90;;;;;;5093966;28;20389;-70
2021/10/23 00:21:00;;;;;;;0.40;0.20;;;6.00;99.90;;;;;;5093247;28;20879;-68
2021/10/23 00:23:26;;;;;;;0.40;0.20;;;6.00;99.90;;;;;;5093918;28;20484;-69
2021/10/23 00:25:52;;;;;;;0.40;0.20;;;5.90;99.90;;;;;;5093759;28;20385;-69
2021/10/23 00:28:18;;;;;;;0.40;0.20;;;6.00;99.90;;;;;;5093201;28;20408;-69
2021/10/23 00:30:43;;;;;;;0.40;0.20;;;6.00;99.90;;;;;;5093319;28;20385;-69
2021/10/23 00:33:09;;;;;;;0.40;0.20;;;5.90;99.90;;;;;;5093318;28;20523;-69
2021/10/23 00:35:35;;;;;;;0.40;0.20;;;5.90;99.90;;;;;;5093316;28;20379;-69
2021/10/23 00:38:01;;;;;;;0.40;0.20;;;5.90;99.90;;;;;;5093010;28;20389;-69
2021/10/23 00:40:27;;;;;;;0.40;0.30;;;6.00;99.90;;;;;;5093466;28;20761;-69
2021/10/23 00:42:53;;;;;;;0.40;0.20;;;6.00;99.90;;;;;;5093050;28;20921;-69
2021/10/23 00:45:20;;;;;;;0.40;0.20;;;6.00;99.90;;;;;;5092373;28;20514;-69
2021/10/23 00:47:46;;;;;;;0.40;0.20;;;6.10;99.90;;;;;;5093102;28;20854;-69
2021/10/23 00:50:12;;;;;;;0.40;0.20;;;5.90;99.90;;;;;;5092444;28;20381;-69
2021/10/23 00:52:38;;;;;;;0.40;0.30;;;6.00;99.90;;;;;;5093346;28;20398;-69
2021/10/23 00:55:06;;;;;;;0.40;0.40;;;6.20;99.90;;;;;;5092377;28;20382;-69
2021/10/23 00:57:32;;;;;;;0.70;0.50;;;6.20;99.90;;;;;;5093014;28;20382;-69
2021/10/23 00:59:57;;;;;;;0.40;0.20;;;6.20;99.90;;;;;;5092933;28;20934;-71
2021/10/23 01:02:23;;;;;;;0.40;0.40;;;6.30;99.90;;;;;;5093315;28;20387;-69
2021/10/23 01:04:49;;;;;;;0.40;0.28;;;6.40;99.90;;;;;;5092871;28;20854;-70
2021/10/23 01:07:14;;;;;;;0.40;0.30;;;6.50;99.90;;;;;;5092505;28;20519;-69
2021/10/23 01:09:41;;;;;;;0.40;0.20;;;6.40;99.90;;;;;;5092658;28;20386;-69
2021/10/23 01:12:09;;;;;;;0.40;0.20;;;6.30;99.90;;;;;;5092243;28;20742;-69
2021/10/23 01:14:35;;;;;;;0.40;0.20;;;6.40;99.90;;;;;;5092649;28;20461;-70
2021/10/23 01:17:00;;;;;;;0.40;0.30;;;6.40;99.90;;;;;;5090777;28;20527;-69
2021/10/23 01:19:26;;;;;;;0.40;0.30;;;6.40;99.90;;;;;;5092816;28;20427;-69
2021/10/23 01:21:53;;;;;;;0.40;0.20;;;6.50;99.90;;;;;;5091424;28;20421;-70
2021/10/23 01:24:20;;;;;;;0.40;0.30;;;6.50;99.90;;;;;;5092054;28;20852;-70
2021/10/23 01:26:46;;;;;;;0.40;0.20;;;6.50;99.90;;;;;;5092670;28;20535;-70
2021/10/23 01:29:14;;;;;;;0.40;0.20;;;6.40;99.90;;;;;;5091935;28;20769;-70
2021/10/23 01:31:41;;;;;;;0.40;0.20;;;6.40;99.90;;;;;;5092213;28;20881;-69
2021/10/23 01:34:20;;;;;;;0.50;0.40;;;6.30;99.90;;;;;;5090503;28;20385;-70
2021/10/23 01:36:48;;;;;;;0.40;0.20;;;6.20;99.90;;;;;;5092722;28;20383;-70
2021/10/23 01:39:14;;;;;;;0.40;0.20;;;6.20;99.90;;;;;;5091899;28;20431;-70
2021/10/23 01:41:40;;;;;;;0.40;0.20;;;6.30;99.90;;;;;;5092254;28;20382;-69
2021/10/23 01:44:11;;;;;;;0.40;0.20;;;6.20;99.90;;;;;;5091711;28;20749;-70
2021/10/23 01:46:37;;;;;;;0.40;0.20;;;6.30;99.90;;;;;;5092213;28;20382;-70
2021/10/23 01:49:05;;;;;;;0.40;0.20;;;6.40;99.90;;;;;;5091771;28;20451;-71
2021/10/23 01:51:31;;;;;;;1.10;0.80;;;6.40;99.90;;;;;;5092044;28;20416;-70
2021/10/23 01:53:56;;;;;;;0.40;0.40;;;6.30;99.90;;;;;;5092254;28;20382;-69
2021/10/23 01:56:22;;;;;;;0.40;0.20;;;6.20;99.90;;;;;;5090238;28;20378;-69
2021/10/23 01:58:48;;;;;;;0.40;0.20;;;6.30;99.90;;;;;;5092141;28;20420;-69
2021/10/23 02:01:14;;;;;;;0.40;0.20;;;6.30;99.90;;;;;;5091352;28;20414;-70
2021/10/23 02:03:39;;;;;;;0.40;0.27;;;6.20;99.90;;;;;;5092076;28;20418;-70
2021/10/23 02:06:10;;;;;;;0.40;0.20;;;6.20;99.90;;;;;;5090009;28;20425;-70
2021/10/23 02:08:36;;;;;;;0.40;0.20;;;6.20;99.90;;;;;;5090296;28;20394;-69
2021/10/23 02:11:02;;;;;;;0.40;0.20;;;6.20;99.90;;;;;;5091166;28;20731;-72
2021/10/23 02:13:28;;;;;;;0.40;0.30;;;6.30;99.90;;;;;;5092175;28;20452;-70
2021/10/23 02:15:54;;;;;;;0.40;0.20;;;6.20;99.90;;;;;;5091632;28;20473;-70
2021/10/23 02:18:19;;;;;;;0.50;0.37;;;6.20;99.90;;;;;;5091192;28;20385;-69
2021/10/23 02:20:45;;;;;;;0.40;0.20;;;6.20;99.90;;;;;;5091745;28;20366;-70
2021/10/23 02:23:11;;;;;;;1.00;0.90;;;6.20;99.90;;;;;;5091027;28;20769;-70
2021/10/23 02:25:36;;;;;;;0.40;0.30;;;6.10;99.90;;;;;;5091986;28;20397;-70
2021/10/23 02:28:02;;;;;;;0.40;0.40;;;6.00;99.90;;;;;;5090240;28;20933;-70
2021/10/23 02:30:28;;;;;;;0.40;0.20;;;6.00;99.90;;;;;;5091566;28;20370;-69
2021/10/23 02:32:53;;;;;;;0.40;0.20;;;5.90;99.90;;;;;;5091424;28;20884;-69
2021/10/23 02:35:19;;;;;;;0.40;0.20;;;5.90;99.90;;;;;;5090914;28;20370;-70
2021/10/23 02:37:46;;;;;;;0.40;0.20;;;5.90;99.90;;;;;;5091311;28;20378;-69
2021/10/23 02:40:12;;;;;;;0.40;0.20;;;5.90;99.90;;;;;;5089535;28;20382;-70
2021/10/23 02:42:38;;;;;;;0.40;0.20;;;5.80;99.90;;;;;;5089865;28;20825;-69
2021/10/23 02:45:06;;;;;;;0.47;0.43;;;5.80;99.90;;;;;;5090430;28;20465;-72
2021/10/23 02:47:32;;;;;;;0.40;0.20;;;5.80;99.90;;;;;;5091728;28;20465;-70
2021/10/23 02:49:58;;;;;;;0.40;0.20;;;5.80;99.90;;;;;;5091228;28;20564;-70
2021/10/23 02:52:23;;;;;;;0.40;0.20;;;5.90;99.90;;;;;;5090310;28;20747;-70
2021/10/23 02:54:49;;;;;;;0.40;0.20;;;5.90;99.90;;;;;;5090965;28;20375;-70
2021/10/23 02:57:15;;;;;;;0.40;0.20;;;5.90;99.90;;;;;;5090506;28;20370;-70
2021/10/23 02:59:43;;;;;;;0.40;0.30;;;5.80;99.90;;;;;;5091223;28;20374;-70
2021/10/23 03:02:08;;;;;;;0.40;0.20;;;5.80;99.90;;;;;;5090290;28;20429;-70
2021/10/23 03:04:34;;;;;;;0.40;0.20;;;5.90;99.90;;;;;;5090943;28;20445;-70
2021/10/23 03:07:00;;;;;;;0.40;0.30;;;5.80;99.90;;;;;;5093639;28;20417;-70
2021/10/23 03:09:25;;;;;;;0.40;0.30;;;5.90;99.90;;;;;;5097116;28;20917;-69
2021/10/23 03:11:51;;;;;;;0.40;0.20;;;5.90;99.90;;;;;;5096345;28;20421;-69
2021/10/23 03:14:16;;;;;;;0.40;0.20;;;5.80;99.90;;;;;;5095901;28;20405;-69
2021/10/23 03:16:42;;;;;;;0.40;0.30;;;5.80;99.90;;;;;;5098139;28;20470;-69
2021/10/23 03:19:08;;;;;;;0.40;0.20;;;5.80;99.90;;;;;;5097097;28;20370;-70
2021/10/23 03:21:33;;;;;;;0.40;0.20;;;5.80;99.90;;;;;;5097614;28;20378;-69
2021/10/23 03:23:59;;;;;;;0.40;0.20;;;5.90;99.90;;;;;;5097553;28;20484;-69
2021/10/23 03:26:25;;;;;;;0.40;0.20;;;5.80;99.90;;;;;;5096947;28;20381;-69
2021/10/23 03:28:50;;;;;;;0.40;0.20;;;5.80;99.90;;;;;;5097530;28;20765;-69
2021/10/23 03:31:16;;;;;;;0.40;0.20;;;5.90;99.90;;;;;;5097224;28;20382;-69
2021/10/23 03:33:42;;;;;;;0.40;0.20;;;6.00;99.90;;;;;;5097513;28;20374;-69
2021/10/23 03:36:07;;;;;;;0.40;0.20;;;5.90;99.90;;;;;;5096803;28;20378;-70
2021/10/23 03:38:33;;;;;;;0.40;0.20;;;5.90;99.90;;;;;;5097314;28;20410;-69
2021/10/23 03:40:59;;;;;;;0.40;0.20;;;6.00;99.90;;;;;;5097487;28;20385;-69
2021/10/23 03:43:24;;;;;;;0.70;0.50;;;5.90;99.90;;;;;;5096705;28;20951;-69
2021/10/23 03:45:50;;;;;;;0.40;0.30;;;6.00;99.90;;;;;;5097367;28;20400;-69
2021/10/23 03:48:16;;;;;;;0.70;0.60;;;6.00;99.90;;;;;;5096864;28;20370;-69
2021/10/23 03:50:42;;;;;;;0.40;0.20;;;6.10;99.90;;;;;;5097472;28;20382;-69
2021/10/23 03:53:07;;;;;;;0.40;0.40;;;6.10;99.90;;;;;;5096961;28;20402;-69
2021/10/23 03:55:33;;;;;;;0.40;0.22;;;6.00;99.90;;;;;;5097174;28;20397;-69
2021/10/23 03:57:59;;;;;;;0.40;0.20;;;6.00;99.90;;;;;;5097299;28;20853;-69
2021/10/23 04:00:24;;;;;;;0.40;0.20;;;6.10;99.90;;;;;;5096855;28;20812;-69
2021/10/23 04:02:50;;;;;;;0.40;0.20;;;6.20;99.90;;;;;;5097505;28;20418;-69
2021/10/23 04:05:16;;;;;;;0.40;0.20;;;6.10;99.90;;;;;;5097405;28;20489;-70
2021/10/23 04:07:42;;;;;;;0.40;0.28;;;6.10;99.90;;;;;;5097626;28;20388;-69
2021/10/23 04:10:07;;;;;;;0.40;0.20;;;6.10;99.90;;;;;;5097314;28;20487;-69
2021/10/23 04:12:33;;;;;;;0.40;0.20;;;6.10;99.90;;;;;;5096511;28;20384;-69
2021/10/23 04:15:02;;;;;;;0.40;0.20;;;6.10;99.90;;;;;;5097542;28;20405;-69
2021/10/23 04:17:28;;;;;;;0.40;0.20;;;6.10;99.90;;;;;;5096762;28;20385;-69
2021/10/23 04:19:54;;;;;;;0.40;0.20;;;6.20;99.90;;;;;;5093556;28;20394;-69
2021/10/23 04:22:20;;;;;;;0.40;0.20;;;6.10;99.90;;;;;;5093676;28;20382;-69
2021/10/23 04:24:47;;;;;;;0.90;0.60;;;6.20;99.90;;;;;;5094271;28;20425;-69
2021/10/23 04:27:13;;;;;;;0.40;0.20;;;6.20;99.90;;;;;;5093540;28;20469;-69
2021/10/23 04:29:38;;;;;;;0.63;0.43;;;6.20;99.90;;;;;;5094293;28;20466;-69
2021/10/23 04:32:04;;;;;;;0.40;0.20;;;6.30;99.90;;;;;;5093949;28;20443;-69
2021/10/23 04:34:30;;;;;;;0.40;0.20;;;6.40;99.90;;;;;;5093457;28;20669;-69
2021/10/23 04:36:56;;;;;;;0.40;0.20;;;6.30;99.90;;;;;;5093837;28;20477;-69
2021/10/23 04:39:22;;;;;;;0.40;0.20;;;6.20;99.90;;;;;;5093192;28;20374;-69
2021/10/23 04:41:48;;;;;;;0.60;0.50;;;6.30;99.90;;;;;;5093930;28;20707;-70
2021/10/23 04:44:13;;;;;;;0.40;0.20;;;6.20;99.90;;;;;;5092814;28;21029;-70
2021/10/23 04:46:39;;;;;;;0.50;0.40;;;6.10;99.90;;;;;;5093423;28;20402;-70
2021/10/23 04:49:05;;;;;;;0.40;0.20;;;6.20;99.90;;;;;;5093655;28;20461;-70
2021/10/23 04:51:30;;;;;;;0.40;0.20;;;6.00;99.90;;;;;;5092905;28;20374;-70
2021/10/23 04:53:56;;;;;;;0.40;0.20;;;6.10;99.90;;;;;;5093718;28;20849;-70
2021/10/23 04:56:21;;;;;;;0.40;0.20;;;6.20;99.90;;;;;;5093025;28;20371;-70
2021/10/23 04:58:47;;;;;;;0.40;0.20;;;6.20;99.90;;;;;;5093471;28;20401;-70
2021/10/23 05:01:13;;;;;;;0.40;0.20;;;6.30;99.90;;;;;;5092933;28;20743;-71
2021/10/23 05:03:39;;;;;;;0.40;0.20;;;6.30;99.90;;;;;;5093544;28;20413;-70
2021/10/23 05:06:04;;;;;;;0.40;0.40;;;6.20;99.90;;;;;;5093062;28;20390;-70
2021/10/23 05:08:30;;;;;;;0.40;0.20;;;6.20;99.90;;;;;;5092745;28;20378;-70
2021/10/23 05:10:56;;;;;;;0.40;0.20;;;6.30;99.90;;;;;;5092993;28;20424;-69
2021/10/23 05:13:21;;;;;;;0.40;0.20;;;6.20;99.90;;;;;;5092529;28;20460;-70
2021/10/23 05:15:47;;;;;;;0.40;0.22;;;6.20;99.90;;;;;;5093300;28;20430;-70
2021/10/23 05:18:13;;;;;;;0.40;0.30;;;6.30;99.90;;;;;;5092863;28;20386;-70
2021/10/23 05:20:38;;;;;;;0.40;0.20;;;6.40;99.90;;;;;;5092770;28;20379;-70
2021/10/23 05:23:04;;;;;;;0.40;0.20;;;6.30;99.90;;;;;;5093200;28;20416;-70
2021/10/23 05:25:30;;;;;;;0.40;0.20;;;6.30;99.90;;;;;;5092425;28;20370;-69
2021/10/23 05:27:56;;;;;;;0.40;0.20;;;6.40;99.90;;;;;;5092592;28;20374;-69
2021/10/23 05:30:22;;;;;;;0.40;0.20;;;6.30;99.90;;;;;;5092175;28;20413;-69
2021/10/23 05:32:47;;;;;;;0.40;0.20;;;6.30;99.90;;;;;;5092943;28;20390;-69
2021/10/23 05:35:13;;;;;;;0.40;0.20;;;6.30;99.90;;;;;;5092829;28;20834;-69
2021/10/23 05:37:38;;;;;;;0.40;0.20;;;6.20;99.90;;;;;;5090840;28;20485;-69
2021/10/23 05:40:08;;;;;;;0.40;0.20;;;6.50;99.90;;;;;;5092383;28;20466;-69
2021/10/23 05:42:33;;;;;;;0.75;0.65;;;6.40;99.90;;;;;;5091995;28;20383;-69
2021/10/23 05:44:59;;;;;;;0.40;0.30;;;6.30;99.90;;;;;;5092272;28;20739;-68
2021/10/23 05:47:25;;;;;;;0.40;0.30;;;6.30;99.90;;;;;;5091679;28;20431;-69
2021/10/23 05:49:50;;;;;;;0.40;0.20;;;6.20;99.90;;;;;;5092566;28;20393;-69
2021/10/23 05:52:16;;;;;;;0.40;0.20;;;6.20;99.90;;;;;;5091884;28;20400;-70
2021/10/23 05:54:42;;;;;;;0.40;0.33;;;6.10;99.90;;;;;;5092405;28;20846;-68
2021/10/23 05:57:09;;;;;;;0.40;0.20;;;6.20;99.90;;;;;;5092539;28;20389;-69
2021/10/23 05:59:45;;;;;;;0.40;0.20;;;6.20;99.90;;;;;;5092074;28;20413;-69
2021/10/23 06:02:32;;;;;;;0.40;0.20;;;6.20;99.90;;;;;;5092311;28;20394;-68
2021/10/23 06:04:59;;;;;;;0.40;0.38;;;6.30;99.90;;;;;;5091612;28;20402;-68
2021/10/23 06:07:26;;;;;;;0.40;0.20;;;6.20;99.90;;;;;;5091881;28;20979;-69
2021/10/23 06:09:53;;;;;;;0.40;0.20;;;6.30;99.90;;;;;;5090730;28;20386;-70
2021/10/23 06:12:20;;;;;;;0.40;0.20;;;6.40;99.90;;;;;;5090435;28;20773;-69
2021/10/23 06:14:46;;;;;;;0.40;0.20;;;6.30;99.90;;;;;;5092115;28;20379;-70
2021/10/23 06:17:12;;;;;;;0.40;0.20;;;6.40;99.90;;;;;;5091955;28;20455;-70
2021/10/23 06:19:38;;;;;;;0.40;0.20;;;6.40;99.90;;;;;;5090115;28;20476;-71
2021/10/23 06:22:05;;;;;;;0.40;0.20;;;6.50;99.90;;;;;;5090901;28;20458;-69
2021/10/23 06:24:32;;;;;;;0.40;0.20;;;6.60;99.90;;;;;;5091294;28;20493;-71
2021/10/23 06:26:58;;;;;;;0.40;0.20;;;6.70;99.90;;;;;;5092040;28;20483;-70
2021/10/23 06:29:24;;;;;;;0.40;0.23;;;6.60;99.90;;;;;;5091222;28;20976;-71
2021/10/23 06:31:50;;;;;;;0.40;0.20;;;6.60;99.90;;;;;;5091703;28;20385;-70
2021/10/23 06:34:15;;;;;;;0.40;0.30;;;6.60;99.90;;;;;;5091514;28;20384;-70
2021/10/23 06:36:41;;;;;;;0.40;0.20;;;6.60;99.90;;;;;;5091031;28;20374;-71
2021/10/23 06:39:07;;;;;;;0.40;0.20;;;6.80;99.90;;;;;;5091755;28;20803;-71
2021/10/23 06:41:35;;;;;;;0.40;0.20;;;6.70;99.90;;;;;;5090535;28;20381;-69
2021/10/23 06:44:02;;;;;;;0.40;0.20;;;6.70;99.90;;;;;;5090384;28;20757;-70
2021/10/23 06:46:27;;;;;;;0.40;0.20;;;6.60;99.90;;;;;;5090999;28;20438;-70
2021/10/23 06:48:53;;;;;;;0.40;0.20;;;6.60;99.90;;;;;;5091567;28;20378;-70
2021/10/23 06:51:18;;;;;;;0.40;0.20;;;6.70;99.90;;;;;;5090852;28;20374;-71
2021/10/23 06:53:44;;;;;;;0.50;0.40;;;6.70;99.90;;;;;;5091404;28;20382;-70
2021/10/23 06:56:10;;;;;;;0.40;0.20;;;6.70;99.90;;;;;;5091488;28;20385;-71
2021/10/23 06:58:35;;;;;;;0.40;0.20;;;6.70;99.90;;;;;;5090850;28;20382;-70
2021/10/23 07:01:04;;;;;;;0.40;0.20;;;6.90;99.90;;;;;;5091099;28;20378;-70
2021/10/23 07:03:29;;;;;;;0.40;0.27;;;6.90;99.90;;;;;;5090971;28;20410;-71
2021/10/23 07:05:55;;;;;;;0.40;0.20;;;6.90;99.90;;;;;;5091430;28;20374;-70
2021/10/23 07:08:21;;;;;;;0.40;0.20;;;6.80;99.90;;;;;;5090885;28;20432;-71
2021/10/23 07:10:47;;;;;;;0.40;0.20;;;6.90;99.90;;;;;;5091401;28;20926;-71
2021/10/23 07:13:12;;;;;;;0.40;0.20;;;7.00;99.90;;;;;;5091317;28;20404;-70
2021/10/23 07:15:39;;;;;;;0.40;0.20;;;7.10;99.90;;;;;;5089251;28;20953;-70
2021/10/23 07:18:05;;;;;;;0.40;0.20;;;7.00;99.90;;;;;;5091480;28;20409;-70
2021/10/23 07:20:32;;;;;;;0.40;0.20;;;7.00;99.90;;;;;;5090729;28;20412;-70
2021/10/23 07:22:58;;;;;;;0.40;0.20;;;7.00;99.90;;;;;;5091164;28;20420;-70
2021/10/23 07:25:26;;;;;;;0.40;0.30;;;7.10;99.90;;;;;;5090637;28;20769;-71
2021/10/23 07:27:51;;;;;;;0.40;0.20;;;7.30;99.90;;;;;;5091413;28;20378;-70
2021/10/23 07:30:17;;;;;;;0.40;0.20;;;7.30;99.90;;;;;;5090875;28;20405;-70
2021/10/23 07:32:43;;;;;;;0.40;0.20;;;7.30;99.90;;;;;;5090222;28;20469;-70
2021/10/23 07:35:10;;;;;;;0.40;0.20;;;7.40;99.90;;;;;;5091191;28;20463;-70
2021/10/23 07:37:36;;;;;;;0.40;0.20;;;7.50;99.90;;;;;;5090385;28;20390;-70
2021/10/23 07:40:04;;;;;;;0.40;0.20;;;7.40;99.90;;;;;;5091208;28;20377;-70
2021/10/23 07:42:30;;;;;;;0.40;0.30;;;7.40;99.90;;;;;;5090114;28;20378;-72
2021/10/23 07:44:57;;;;;;;0.40;0.20;;;7.50;99.90;;;;;;5090798;28;20381;-70
2021/10/23 07:47:23;;;;;;;2.00;0.70;;;7.40;99.90;;;;;;5089088;28;20393;-71
2021/10/23 07:49:49;;;;;;;0.40;0.30;;;7.50;99.90;;;;;;5091141;28;20378;-71
2021/10/23 07:52:16;;;;;;;0.40;0.20;;;7.50;99.90;;;;;;5090600;28;20405;-70
2021/10/23 07:54:42;;;;;;;0.40;0.20;;;7.50;99.90;;;;;;5091002;28;20675;-71
2021/10/23 07:57:08;;;;;;;0.40;0.20;;;7.60;99.90;;;;;;5094876;28;20384;-70
2021/10/23 07:59:34;;;;;;;0.40;0.40;;;7.60;99.90;;;;;;5094452;28;20696;-71
2021/10/23 08:02:04;;;;;;;0.40;0.20;;;7.60;99.90;;;;;;5095116;28;20397;-71
2021/10/23 08:04:31;;;;;;;0.40;0.20;;;7.70;99.90;;;;;;5094251;28;20410;-71
2021/10/23 08:07:01;;;;;;;0.40;0.30;;;7.80;99.90;;;;;;5094690;28;20373;-71
2021/10/23 08:09:29;;;;;;;0.40;0.30;;;7.90;99.90;;;;;;5092777;28;20811;-71
2021/10/23 08:11:55;;;;;;;0.40;0.20;;;7.90;99.90;;;;;;5094842;28;20377;-70
2021/10/23 08:14:21;;;;;;;0.40;0.30;;;7.90;99.90;;;;;;5093274;28;20382;-71
2021/10/23 08:16:46;;;;;;;0.40;0.20;;;7.90;99.90;;;;;;5093757;28;20528;-71
2021/10/23 08:19:12;;;;;;;0.80;0.50;;;7.90;99.90;;;;;;5094060;28;20382;-71
2021/10/23 08:21:41;;;;;;;0.40;0.20;;;8.00;99.90;;;;;;5092334;28;20783;-71
2021/10/23 08:24:08;;;;;;;0.40;0.20;;;8.00;99.90;;;;;;5093581;28;20406;-71
2021/10/23 08:26:34;;;;;;;0.40;0.20;;;8.00;99.90;;;;;;5091842;28;20389;-71
2021/10/23 08:29:00;;;;;;;0.40;0.20;;;8.10;99.90;;;;;;5093920;28;20383;-71
2021/10/23 08:31:26;;;;;;;0.40;0.20;;;8.10;99.90;;;;;;5092694;28;20457;-71
2021/10/23 08:33:54;;;;;;;0.40;0.20;;;8.10;99.90;;;;;;5094150;28;20469;-71
2021/10/23 08:36:19;;;;;;;0.40;0.20;;;8.10;99.90;;;;;;5090153;28;20382;-70
2021/10/23 08:38:45;;;;;;;5.30;0.80;;;8.20;99.90;;;;;;5096808;28;20370;-71
2021/10/23 08:41:12;;;;;;;0.40;0.20;;;8.20;99.90;;;;;;5093267;28;20431;-71
2021/10/23 08:43:41;;;;;;;0.40;0.20;;;8.30;99.90;;;;;;5090896;28;20569;-71
2021/10/23 08:46:21;;;;;;;0.40;0.20;;;8.40;99.90;;;;;;5090749;28;20393;-70
2021/10/23 08:48:52;;;;;;;0.40;0.20;;;8.50;99.90;;;;;;5093700;28;20466;-70
2021/10/23 08:51:21;;;;;;;0.40;0.20;;;8.60;99.90;;;;;;5093598;28;20381;-70
2021/10/23 08:53:52;;;;;;;0.40;0.20;;;8.80;99.90;;;;;;5088575;28;20495;-71
2021/10/23 08:56:19;;;;;;;0.40;0.30;;;8.90;99.90;;;;;;5086184;28;20410;-71
2021/10/23 08:58:45;;;;;;;0.40;0.20;;;8.90;99.90;;;;;;5091766;28;20420;-69
2021/10/23 09:01:14;;;;;;;0.40;0.20;;;9.00;99.90;;;;;;5098307;28;20382;-69
2021/10/23 09:03:44;;;;;;;0.40;0.20;;;9.00;99.90;;;;;;5092013;28;20410;-70
2021/10/23 09:06:30;;;;;;;0.90;0.60;;;9.00;99.90;;;;;;5078348;28;20496;-70
2021/10/23 09:09:10;;;;;;;0.40;0.20;;;9.10;99.90;;;;;;5086319;28;20743;-70
2021/10/23 09:11:40;;;;;;;0.40;0.20;;;9.30;99.90;;;;;;5087724;28;20394;-71
2021/10/23 09:14:39;;;;;;;0.40;0.20;;;9.40;99.90;;;;;;5090406;28;20386;-70
2021/10/23 09:17:10;;;;;;;0.40;0.20;;;9.60;99.90;;;;;;5052922;28;20422;-70
2021/10/23 09:19:46;;;;;;;0.40;0.20;;;9.60;99.90;;;;;;5089736;28;20792;-70
2021/10/23 09:22:30;;;;;;;0.40;0.20;;;9.80;99.90;;;;;;5091393;28;20751;-70
2021/10/23 09:25:27;;;;;;;0.40;0.20;;;9.80;99.90;;;;;;5075349;28;20403;-69
2021/10/23 09:28:12;;;;;;;0.40;0.20;;;9.80;99.90;;;;;;5072552;28;20395;-69
2021/10/23 09:30:50;;;;;;;0.40;0.20;;;9.90;99.90;;;;;;5072313;28;20474;-70
2021/10/23 09:33:19;;;;;;;0.40;0.20;;;9.80;99.90;;;;;;5072958;28;20411;-70
2021/10/23 09:35:55;;;;;;;0.40;0.20;;;10.00;99.90;;;;;;5072073;28;20398;-70
2021/10/23 09:38:23;;;;;;;0.40;0.20;;;10.00;99.90;;;;;;5072505;28;20383;-69
2021/10/23 09:40:51;;;;;;;0.40;0.20;;;10.10;99.90;;;;;;5071681;28;20379;-69
2021/10/23 09:43:24;;;;;;;0.40;0.30;;;10.10;99.90;;;;;;5072306;28;20407;-69
2021/10/23 09:45:57;;;;;;;0.40;0.30;;;10.10;99.90;;;;;;5078712;28;20811;-69
2021/10/23 09:48:43;;;;;;;0.40;0.40;;;10.10;99.90;;;;;;5092734;28;20475;-69
2021/10/23 09:51:31;;;;;;;0.60;0.60;;;10.20;99.90;;;;;;5092577;28;20378;-69
2021/10/23 09:54:02;;;;;;;0.70;0.70;;;10.30;99.90;;;;;;5092745;28;20394;-69
2021/10/23 09:56:29;;;;;;;0.50;0.50;;;10.30;99.90;;;;;;5091701;28;20382;-70
2021/10/23 09:59:07;;;;;;;0.40;0.20;;;10.40;99.90;;;;;;5092375;28;20815;-69
2021/10/23 10:01:40;;;;;;;0.80;0.80;;;10.40;99.90;;;;;;5091687;28;20378;-69
2021/10/23 10:04:08;;;;;;;1.07;0.97;;;10.60;99.90;;;;;;5092440;28;20817;-70
2021/10/23 10:06:42;;;;;;;0.40;0.30;;;10.50;99.90;;;;;;5090427;28;20386;-69
2021/10/23 10:09:09;;;;;;;0.40;0.20;;;10.40;99.90;;;;;;5092392;28;20384;-69
2021/10/23 10:11:37;;;;;;;0.40;0.20;;;10.60;99.90;;;;;;5090440;28;20849;-69
2021/10/23 10:14:11;;;;;;;0.40;0.40;;;10.80;99.90;;;;;;5091748;28;20421;-70
2021/10/23 10:16:53;;;;;;;0.40;0.40;;;10.80;99.90;;;;;;5090826;28;20416;-69
2021/10/23 10:19:19;;;;;;;0.40;0.30;;;10.90;99.90;;;;;;5092236;28;20413;-69
2021/10/23 10:21:45;;;;;;;4.10;0.50;;;10.90;99.90;;;;;;5091346;28;20402;-69
2021/10/23 10:24:28;;;;;;;0.40;0.20;;;10.90;99.90;;;;;;5091960;28;20483;-69
2021/10/23 10:27:04;;;;;;;0.40;0.20;;;10.90;99.90;;;;;;5092098;28;20374;-69
2021/10/23 10:32:24;;;;;;;0.40;0.20;;;11.30;99.90;;;;;;5091726;28;20862;-68
2021/10/23 10:39:16;;;;;;;0.68;0.47;;;11.40;99.90;;;;;;5049012;28;20481;-70
2021/10/23 10:44:14;;;;;;;0.40;0.20;;;11.60;99.90;;;;;;5081923;28;20406;-69
2021/10/23 10:46:55;;;;;;;0.60;0.50;;;11.80;99.90;;;;;;5090820;28;20391;-70
2021/10/23 10:49:53;;;;;;;0.40;0.20;;;12.10;99.90;;;;;;5091629;28;20389;-69
2021/10/23 10:52:40;;;;;;;0.40;0.30;;;12.40;99.90;;;;;;5091550;28;20413;-69
2021/10/23 10:55:19;;;;;;;0.40;0.20;;;12.80;98.70;;;;;;5091620;28;20390;-69
2021/10/23 10:58:02;;;;;;;0.40;0.30;;;12.50;97.10;;;;;;5090900;28;20405;-70
2021/10/23 11:00:46;;;;;;;0.40;0.20;;;13.20;97.80;;;;;;5091502;28;20390;-69
2021/10/23 11:03:44;;;;;;;0.40;0.20;;;13.80;95.10;;;;;;5090900;28;20418;-69
2021/10/23 11:06:34;;;;;;;0.40;0.20;;;14.50;94.20;;;;;;5091088;28;20391;-70
2021/10/23 11:09:09;;;;;;;0.40;0.30;;;13.80;92.50;;;;;;5091375;28;20378;-70
2021/10/23 11:11:44;;;;;;;0.40;0.20;;;14.40;91.60;;;;;;5090542;28;20877;-70
2021/10/23 11:14:34;;;;;;;0.40;0.30;;;15.10;90.90;;;;;;5091042;28;20469;-70
2021/10/23 11:17:09;;;;;;;0.40;0.20;;;16.10;90.00;;;;;;5082069;28;20459;-71
2021/10/23 11:19:49;;;;;;;0.40;0.20;;;16.60;85.70;;;;;;5090761;28;20414;-71
2021/10/23 11:22:32;;;;;;;0.40;0.30;;;16.80;85.80;;;;;;5091288;28;20382;-70
2021/10/23 11:25:03;;;;;;;0.40;0.28;;;17.20;80.20;;;;;;5091129;28;20452;-70
2021/10/23 11:27:50;;;;;;;0.40;0.30;;;16.70;82.60;;;;;;5091629;28;20879;-70
2021/10/23 11:30:25;;;;;;;0.40;0.30;;;15.20;85.60;;;;;;5095278;28;20473;-71
2021/10/23 11:33:02;;;;;;;0.40;0.20;;;16.00;85.40;;;;;;5094870;28;20398;-71
2021/10/23 11:35:36;;;;;;;0.40;0.30;;;16.50;82.70;;;;;;5095350;28;20393;-71
2021/10/23 11:38:08;;;;;;;0.40;0.20;;;18.00;79.30;;;;;;5095123;28;20374;-70
2021/10/23 11:40:38;;;;;;;0.40;0.20;;;16.40;79.40;;;;;;5094395;28;20382;-72
2021/10/23 11:43:05;;;;;;;0.40;0.20;;;18.00;79.50;;;;;;5093681;28;20430;-71
2021/10/23 11:45:33;;;;;;;0.40;0.20;;;18.00;78.10;;;;;;5095004;28;20461;-71
2021/10/23 11:48:05;;;;;;;0.40;0.20;;;17.20;80.00;;;;;;5094934;28;20468;-71
2021/10/23 11:50:42;;;;;;;0.40;0.30;;;16.70;79.10;;;;;;5094952;28;20387;-71
2021/10/23 11:53:24;;;;;;;0.40;0.30;;;16.90;82.80;;;;;;5094519;28;20422;-69
2021/10/23 11:56:00;;;;;;;0.40;0.30;;;17.60;78.60;;;;;;5093979;28;20897;-70
2021/10/23 11:58:28;;;;;;;0.40;0.30;;;18.20;73.10;;;;;;5094814;28;20385;-69
2021/10/23 12:01:09;;;;;;;0.40;0.30;;;17.60;72.20;;;;;;5094210;28;20385;-70
2021/10/23 12:03:46;;;;;;;0.40;0.30;;;17.10;73.30;;;;;;5094086;28;20409;-74
2021/10/23 12:06:20;;;;;;;0.45;0.32;;;16.40;79.20;;;;;;5094404;28;20866;-69
2021/10/23 12:08:46;;;;;;;0.40;0.30;;;18.10;76.80;;;;;;5094024;28;20382;-70
2021/10/23 12:11:18;;;;;;;0.40;0.20;;;18.50;74.20;;;;;;5094653;28;20378;-69
2021/10/23 12:14:02;;;;;;;0.40;0.28;;;17.20;76.90;;;;;;5093764;28;20382;-70
2021/10/23 12:16:35;;;;;;;0.40;0.30;;;16.70;78.50;;;;;;5094533;28;20727;-70
2021/10/23 12:19:05;;;;;;;0.40;0.20;;;17.70;78.70;;;;;;5094583;28;20370;-68
2021/10/23 12:21:40;;;;;;;0.40;0.30;;;17.80;74.10;;;;;;5094425;28;20831;-71
2021/10/23 12:24:17;;;;;;;0.40;0.30;;;18.00;75.10;;;;;;5094011;28;20954;-68
2021/10/23 12:26:58;;;;;;;0.40;0.20;;;16.50;71.40;;;;;;5094090;28;20442;-70
2021/10/23 12:29:34;;;;;;;0.40;0.20;;;16.80;74.60;;;;;;5092967;28;20738;-69
2021/10/23 12:32:05;;;;;;;0.40;0.30;;;16.20;78.80;;;;;;5093742;28;20434;-70
2021/10/23 12:34:50;;;;;;;0.40;0.20;;;16.40;82.30;;;;;;5093116;28;20784;-70
2021/10/23 12:37:28;;;;;;;0.40;0.30;;;15.90;76.30;;;;;;5093937;28;20865;-70
2021/10/23 12:40:06;;;;;;;0.40;0.30;;;16.30;75.80;;;;;;5092391;28;20389;-70
2021/10/23 12:42:41;;;;;;;0.40;0.30;;;16.70;76.80;;;;;;5094004;28;20435;-70
2021/10/23 12:45:08;;;;;;;0.40;0.30;;;17.40;79.20;;;;;;5093878;28;20398;-69
2021/10/23 12:47:34;;;;;;;0.40;0.20;;;16.90;73.00;;;;;;5093884;28;20429;-70
2021/10/23 12:50:00;;;;;;;0.40;0.20;;;17.30;72.40;;;;;;5093158;28;20410;-70
2021/10/23 12:52:26;;;;;;;0.80;0.50;;;16.00;76.60;;;;;;5093923;28;20394;-69
2021/10/23 12:54:52;;;;;;;0.40;0.30;;;15.90;72.90;;;;;;5093204;28;20382;-71
2021/10/23 12:57:18;;;;;;;0.40;0.27;;;16.80;76.60;;;;;;5093686;28;20410;-70
2021/10/23 12:59:43;;;;;;;0.40;0.20;;;16.90;73.80;;;;;;5092721;28;20781;-70
2021/10/23 13:02:09;;;;;;;0.40;0.20;;;17.30;75.80;;;;;;5093414;28;20889;-71
2021/10/23 13:04:35;;;;;;;0.40;0.20;;;17.50;77.60;;;;;;5093444;28;20413;-70
2021/10/23 13:07:01;;;;;;;0.40;0.30;;;17.10;73.20;;;;;;5092857;28;20378;-70
2021/10/23 13:09:27;;;;;;;0.40;0.20;;;17.60;70.80;;;;;;5092958;28;20388;-71
2021/10/23 13:11:52;;;;;;;0.40;0.30;;;17.20;73.40;;;;;;5092816;28;20378;-70
2021/10/23 13:14:21;;;;;;;0.40;0.20;;;16.80;74.20;;;;;;5093011;28;20409;-70